createdAt,value
2023-04-21T00:00:59.707Z,974.0
2023-04-21T00:06:31.513Z,974.08
2023-04-21T00:12:03.255Z,974.03
2023-04-21T00:17:35.191Z,973.92
2023-04-21T00:23:06.708Z,973.62
2023-04-21T00:28:38.362Z,973.61
2023-04-21T00:34:10.180Z,974.03
2023-04-21T00:39:42.004Z,974.13
2023-04-21T00:45:13.436Z,974.28
2023-04-21T00:50:45.627Z,973.99
2023-04-21T00:56:21.413Z,973.92
2023-04-21T01:01:53.232Z,973.82
2023-04-21T01:07:24.707Z,973.6
2023-04-21T01:12:56.573Z,973.73
2023-04-21T01:18:28.342Z,974.12
2023-04-21T01:23:59.817Z,973.81
2023-04-21T01:29:31.821Z,973.7
2023-04-21T01:35:03.390Z,973.74
2023-04-21T01:40:35.204Z,973.63
2023-04-21T01:46:07.225Z,973.51
2023-04-21T01:51:38.683Z,973.55
2023-04-21T01:57:14.881Z,973.45
2023-04-21T02:02:46.702Z,973.43
2023-04-21T02:08:18.387Z,973.28
2023-04-21T02:13:49.771Z,973.17
2023-04-21T02:19:22.440Z,973.03
2023-04-21T02:24:53.434Z,972.92
2023-04-21T02:30:25.366Z,972.92
2023-04-21T02:35:56.713Z,972.92
2023-04-21T02:41:28.616Z,972.62
2023-04-21T02:47:00.858Z,972.59
2023-04-21T02:52:31.949Z,972.62
2023-04-21T02:58:08.082Z,972.41
2023-04-21T03:03:40.010Z,972.65
2023-04-21T03:09:11.717Z,972.52
2023-04-21T03:14:43.233Z,972.38
2023-04-21T03:20:15.401Z,972.44
2023-04-21T03:25:46.724Z,972.39
2023-04-21T03:31:18.689Z,972.59
2023-04-21T03:36:50.061Z,972.63
2023-04-21T03:42:21.987Z,972.57
2023-04-21T03:47:53.794Z,972.41
2023-04-21T03:53:25.292Z,972.25
2023-04-21T03:59:03.544Z,972.01
2023-04-21T04:04:35.959Z,972.34
2023-04-21T04:10:07.433Z,972.42
2023-04-21T04:15:38.925Z,972.12
2023-04-21T04:21:10.304Z,972.14
2023-04-21T04:26:41.814Z,972.29
2023-04-21T04:32:13.898Z,972.3
2023-04-21T04:37:46.131Z,972.49
2023-04-21T04:43:17.199Z,972.5
2023-04-21T04:48:48.892Z,972.83
2023-04-21T04:54:21.720Z,972.85
2023-04-21T04:59:58.763Z,972.72
2023-04-21T05:05:30.628Z,973.3
2023-04-21T05:11:02.510Z,973.3
2023-04-21T05:16:34.133Z,973.41
2023-04-21T05:22:05.774Z,973.62
2023-04-21T05:27:37.297Z,973.84
2023-04-21T05:33:09.544Z,973.64
2023-04-21T05:38:40.965Z,973.94
2023-04-21T05:44:12.479Z,974.45
2023-04-21T05:49:44.559Z,974.57
2023-04-21T05:55:16.305Z,974.74
2023-04-21T06:00:52.247Z,974.43
2023-04-21T06:06:24.037Z,974.5
2023-04-21T06:11:55.761Z,974.72
2023-04-21T06:17:28.122Z,975.14
2023-04-21T06:22:59.125Z,975.27
2023-04-21T06:28:30.963Z,975.19
2023-04-21T06:34:02.513Z,975.36
2023-04-21T06:39:34.117Z,976.01
2023-04-21T06:45:05.887Z,975.79
2023-04-21T06:50:38.012Z,976.05
2023-04-21T06:56:09.315Z,975.9
2023-04-21T07:01:45.527Z,975.47
2023-04-21T07:07:17.281Z,975.99
2023-04-21T07:12:55.906Z,977.34
2023-04-21T07:18:27.356Z,977.28
2023-04-21T07:23:59.637Z,976.68
2023-04-21T07:29:30.984Z,977.27
2023-04-21T07:35:02.723Z,977.19
2023-04-21T07:40:34.290Z,977.41
2023-04-21T07:46:06.524Z,977.01
2023-04-21T07:51:37.770Z,977.58
2023-04-21T07:57:09.695Z,977.26
2023-04-21T08:02:46.116Z,977.69
2023-04-21T08:08:17.443Z,978.07
2023-04-21T08:13:49.406Z,978.05
2023-04-21T08:19:21.977Z,978.35
2023-04-21T08:24:53.295Z,978.75
2023-04-21T08:30:24.597Z,978.82
2023-04-21T08:36:28.757Z,978.84
2023-04-21T08:41:27.975Z,979.02
2023-04-21T08:46:59.558Z,978.89
2023-04-21T08:52:30.996Z,978.58
2023-04-21T08:58:02.882Z,979.24
2023-04-21T09:03:39.818Z,979.09
2023-04-21T09:09:10.926Z,979.16
2023-04-21T09:14:42.342Z,979.02
2023-04-21T09:20:14.128Z,978.76
2023-04-21T09:25:46.001Z,979.19
2023-04-21T09:31:18.615Z,978.99
2023-04-21T09:36:49.175Z,979.49
2023-04-21T09:42:21.393Z,979.53
2023-04-21T09:47:53.241Z,978.94
2023-04-21T09:53:25.091Z,978.65
2023-04-21T09:58:56.556Z,978.91
2023-04-21T10:04:35.631Z,979.28
2023-04-21T10:10:06.330Z,979.37
2023-04-21T10:15:38.064Z,978.35
2023-04-21T10:21:09.750Z,978.56
2023-04-21T10:26:41.797Z,979.14
2023-04-21T10:32:13.399Z,978.51
2023-04-21T10:37:45.008Z,978.43
2023-04-21T10:43:16.589Z,978.96
2023-04-21T10:48:48.160Z,979.18
2023-04-21T10:54:20.858Z,978.56
2023-04-21T10:59:51.546Z,978.66
2023-04-21T11:05:28.008Z,978.82
2023-04-21T11:10:59.530Z,978.71
2023-04-21T11:16:31.586Z,978.97
2023-04-21T11:22:02.874Z,978.36
2023-04-21T11:27:34.832Z,978.89
2023-04-21T11:33:06.717Z,978.55
2023-04-21T11:38:37.973Z,978.39
2023-04-21T11:44:09.864Z,978.88
2023-04-21T11:49:41.701Z,977.75
2023-04-21T11:55:13.158Z,978.11
2023-04-21T12:00:45.360Z,978.06
2023-04-21T12:06:21.463Z,978.05
2023-04-21T12:11:52.734Z,978.52
2023-04-21T12:17:24.856Z,977.74
2023-04-21T12:22:56.107Z,978.05
2023-04-21T12:28:28.011Z,978.23
2023-04-21T12:34:00.010Z,977.67
2023-04-21T12:39:32.667Z,977.51
2023-04-21T12:45:03.050Z,977.17
2023-04-21T12:50:34.717Z,976.6
2023-04-21T12:56:06.785Z,977.16
2023-04-21T13:01:38.405Z,977.44
2023-04-21T13:07:14.339Z,977.09
2023-04-21T13:12:46.652Z,976.21
2023-04-21T13:18:17.719Z,977.23
2023-04-21T13:23:50.159Z,976.93
2023-04-21T13:29:21.337Z,976.4
2023-04-21T13:34:53.184Z,976.42
2023-04-21T13:40:24.700Z,976.44
2023-04-21T13:45:56.673Z,976.26
2023-04-21T13:51:28.459Z,975.8
2023-04-21T13:56:59.854Z,975.71
2023-04-21T14:02:32.821Z,975.81
2023-04-21T14:08:09.639Z,975.43
2023-04-21T14:14:10.204Z,975.74
2023-04-21T14:19:13.242Z,975.42
2023-04-21T14:24:45.009Z,975.55
2023-04-21T14:30:16.793Z,975.14
2023-04-21T14:35:48.701Z,974.86
2023-04-21T14:41:20.137Z,974.53
2023-04-21T14:47:11.201Z,974.88
2023-04-21T14:52:24.275Z,974.63
2023-04-21T14:57:55.509Z,974.74
2023-04-21T15:03:28.052Z,974.6
2023-04-21T15:09:05.395Z,974.79
2023-04-21T15:14:36.979Z,974.42
2023-04-21T15:20:08.765Z,974.28
2023-04-21T15:25:40.922Z,973.91
2023-04-21T15:31:12.395Z,973.72
2023-04-21T15:36:43.714Z,973.43
2023-04-21T15:42:15.844Z,973.12
2023-04-21T15:47:47.519Z,972.82
2023-04-21T15:53:21.313Z,972.79
2023-04-21T15:58:50.649Z,972.38
2023-04-21T16:04:22.818Z,972.16
2023-04-21T16:10:01.052Z,972.41
2023-04-21T16:15:32.221Z,972.54
2023-04-21T16:21:03.887Z,972.1
2023-04-21T16:26:35.898Z,971.93
2023-04-21T16:32:07.610Z,971.87
2023-04-21T16:37:39.325Z,971.51
2023-04-21T16:43:10.901Z,971.45
2023-04-21T16:48:43.417Z,971.28
2023-04-21T16:54:14.128Z,971.04
2023-04-21T16:59:45.921Z,970.96
2023-04-21T17:05:17.629Z,970.63
2023-04-21T17:10:55.719Z,970.36
2023-04-21T17:16:27.740Z,970.45
2023-04-21T17:22:00.035Z,970.0
2023-04-21T17:27:31.494Z,969.92
2023-04-21T17:33:18.190Z,969.98
2023-04-21T17:38:34.551Z,969.54
2023-04-21T17:44:06.082Z,969.96
2023-04-21T17:49:38.051Z,970.1
2023-04-21T17:55:09.972Z,970.21
2023-04-21T18:00:41.266Z,969.77
2023-04-21T18:06:13.005Z,970.63
2023-04-21T18:11:50.097Z,970.75
2023-04-21T18:17:21.313Z,970.58
2023-04-21T18:22:54.958Z,970.19
2023-04-21T18:28:24.258Z,970.11
2023-04-21T18:33:55.904Z,969.97
2023-04-21T18:39:27.701Z,969.69
2023-04-21T18:45:04.663Z,969.49
2023-04-21T18:50:31.407Z,969.4
2023-04-21T18:56:02.822Z,969.44
2023-04-21T19:01:34.896Z,969.54
2023-04-21T19:07:06.496Z,969.41
2023-04-21T19:12:42.382Z,969.49
2023-04-21T19:18:14.431Z,969.51
2023-04-21T19:23:46.138Z,969.3
2023-04-21T19:29:17.630Z,969.44
2023-04-21T19:34:49.202Z,969.5
2023-04-21T19:40:21.230Z,969.36
2023-04-21T19:45:52.871Z,969.49
2023-04-21T19:51:24.539Z,969.56
2023-04-21T19:56:56.271Z,969.74
2023-04-21T20:02:29.041Z,969.8
2023-04-21T20:07:59.612Z,969.79
2023-04-21T20:13:38.089Z,969.68
2023-04-21T20:19:09.768Z,969.39
2023-04-21T20:24:41.334Z,969.81
2023-04-21T20:30:13.012Z,969.84
2023-04-21T20:35:45.121Z,969.95
2023-04-21T20:41:16.655Z,969.87
2023-04-21T20:46:48.345Z,969.92
2023-04-21T20:52:19.776Z,969.92
2023-04-21T20:57:51.731Z,969.98
2023-04-21T21:03:24.722Z,969.65
2023-04-21T21:08:54.908Z,969.67
2023-04-21T21:14:33.386Z,969.6
2023-04-21T21:20:05.092Z,969.45
2023-04-21T21:25:36.834Z,969.44
2023-04-21T21:31:08.625Z,969.24
2023-04-21T21:36:40.336Z,969.23
2023-04-21T21:42:12.178Z,969.25
2023-04-21T21:47:46.373Z,969.14
2023-04-21T21:53:15.281Z,969.03
2023-04-21T21:58:47.585Z,968.84
2023-04-21T22:04:18.825Z,968.89
2023-04-21T22:09:50.627Z,968.73
2023-04-21T22:15:26.827Z,968.62
2023-04-21T22:20:58.548Z,968.62
2023-04-21T22:26:30.179Z,968.59
2023-04-21T22:32:01.805Z,968.54
2023-04-21T22:37:33.415Z,968.41
2023-04-21T22:43:05.345Z,968.52
2023-04-21T22:48:36.994Z,968.5
2023-04-21T22:54:08.650Z,968.47
2023-04-21T22:59:41.077Z,968.44
2023-04-21T23:05:12.011Z,968.24
2023-04-21T23:10:43.986Z,968.2
2023-04-21T23:16:20.176Z,968.07
2023-04-21T23:21:51.708Z,968.31
2023-04-21T23:27:23.238Z,968.44
2023-04-21T23:32:55.492Z,968.53
2023-04-21T23:38:26.886Z,968.53
2023-04-21T23:43:58.400Z,968.26
2023-04-21T23:49:30.518Z,968.33
2023-04-21T23:55:02.015Z,968.17
